Flight Track Log - Related Links

Times and Time Zones

All times are in EDT time to prevent confusion due to time zone crossing. See the JBU1098 flight status page for this flight to view local times or setup timezone preferences in your user account.


Time Position Orientation Groundspeed Altitude Reporting Facility
EDT Latitude Longitude Course Direction KTS MPH feet Rate Location/Type
Tue 06:19:00 AM 18.7864 -69.9037 328° Northwest  Level FlightAware Approximate
Tue 06:20:00 AM 18.8755 -69.9626 328° Northwest  Level FlightAware Approximate
Tue 06:21:00 AM 18.9646 -70.0215 328° Northwest  Level FlightAware Approximate
Tue 06:22:00 AM 19.0537 -70.0805 328° Northwest  Level FlightAware Approximate
Tue 06:22:34 AM 18.8511 -69.9411 327° Northwest 455 524 14,800  Level Miami Center
Tue 06:23:00 AM 19.1427 -70.1396 328° Northwest  Level FlightAware Approximate
Tue 06:23:34 AM 18.9414 -70.0089 325° Northwest 431 496 17,200  Level Miami Center
Tue 06:24:00 AM 19.2182 -70.1970 325° Northwest  Level FlightAware Approximate
Tue 06:24:34 AM 19.0253 -70.0728 324° Northwest 393 452 19,300  Level Miami Center
Tue 06:25:00 AM 19.3040 -70.2613 325° Northwest  Level FlightAware Approximate
Tue 06:25:34 AM 19.1133 -70.1386 325° Northwest 386 444 21,100  Level Miami Center
Tue 06:26:00 AM 19.3916 -70.3229 327° Northwest  Level FlightAware Approximate
Tue 06:26:34 AM 19.2075 -70.1997 329° Northwest 391 450 22,800  Level Miami Center
Tue 06:27:00 AM 19.4801 -70.3829 327° Northwest  Level FlightAware Approximate
Tue 06:27:34 AM 19.2942 -70.2769 320° Northwest 396 456 24,400  Level Miami Center
Tue 06:28:34 AM 19.3886 -70.3469 325° Northwest 406 467 25,800 1,350 Climbing Miami Center
Tue 06:29:34 AM 19.4853 -70.4172 326° Northwest 417 480 27,100 1,250 Climbing Miami Center
Tue 06:30:34 AM 19.5839 -70.4897 325° Northwest 423 487 28,300 1,250 Climbing Miami Center
Tue 06:31:34 AM 19.6786 -70.5689 322° Northwest 429 494 29,600 1,350 Climbing Miami Center
Tue 06:32:34 AM 19.7794 -70.6414 326° Northwest 435 501 31,000 1,400 Climbing Miami Center
Tue 06:33:34 AM 19.8739 -70.7142 324° Northwest 430 495 32,400 1,550 Climbing Miami Center
Tue 06:34:34 AM 19.9703 -70.7806 327° Northwest 422 486 34,100 1,250 Climbing Miami Center
Tue 06:35:34 AM 20.0628 -70.8558 323° Northwest 417 480 34,900 900 Climbing Miami Center
Tue 06:36:34 AM 20.1531 -70.9247 324° Northwest 412 474 35,900 550 Climbing Miami Center
Tue 06:37:34 AM 20.2494 -70.9981 324° Northwest 412 474 36,000 50 Climbing Miami Center
Tue 06:38:34 AM 20.3419 -71.0714 323° Northwest 422 486 36,000  Level Miami Center
Tue 06:39:34 AM 20.4344 -71.1494 322° Northwest 422 486 36,000  Level Miami Center
Tue 06:40:34 AM 20.5086 -71.2436 310° West 417 480 36,000  Level Miami Center
Tue 06:41:34 AM 20.5872 -71.3422 310° West 422 486 36,000  Level Miami Center
Tue 06:42:34 AM 20.6594 -71.4389 309° West 422 486 36,000  Level Miami Center
Tue 06:43:34 AM 20.7336 -71.5336 310° West 422 486 36,000  Level Miami Center
Tue 06:44:34 AM 20.8078 -71.6306 309° West 428 493 36,000  Level Miami Center
Tue 06:45:34 AM 20.8819 -71.7275 309° West 428 493 36,000  Level Miami Center
Tue 06:46:34 AM 20.9603 -71.8267 310° West 428 493 36,000  Level Miami Center
Tue 06:47:34 AM 21.0344 -71.9239 309° West 428 493 36,000  Level Miami Center
Tue 06:48:34 AM 21.1017 -72.0103 310° West 428 493 36,000  Level Miami Center
Tue 06:49:34 AM 21.1758 -72.1100 309° West 428 493 36,000  Level Miami Center
Tue 06:50:34 AM 21.2519 -72.2075 310° West 428 493 36,000  Level Miami Center
Tue 06:51:34 AM 21.3300 -72.3050 311° West 433 498 36,000  Level Miami Center
Tue 06:52:34 AM 21.4036 -72.4028 309° West 433 498 36,000  Level Miami Center
Tue 06:53:34 AM 21.4756 -72.5031 308° West 433 498 36,000  Level Miami Center
Tue 06:54:34 AM 21.5511 -72.6008 310° West 433 498 36,000  Level Miami Center
Tue 06:55:34 AM 21.6269 -72.6989 310° West 433 498 36,000  Level Miami Center
Tue 06:56:34 AM 21.7006 -72.7972 309° West 433 498 36,000  Level Miami Center
Tue 06:57:34 AM 21.7783 -72.8953 311° West 433 498 36,000  Level Miami Center
Tue 06:58:34 AM 21.8519 -72.9958 308° West 433 498 36,000  Level Miami Center
Tue 06:59:34 AM 21.9275 -73.0967 309° West 428 493 36,000  Level Miami Center
Tue 07:00:34 AM 22.0031 -73.1975 309° West 433 498 36,000  Level Miami Center
Tue 07:01:34 AM 22.0783 -73.2983 309° West 433 498 36,000  Level Miami Center
Tue 07:02:34 AM 22.1600 -73.3972 312° West 433 498 36,000  Level Miami Center
Tue 07:03:34 AM 22.2292 -73.4983 306° West 433 498 36,000  Level Miami Center
Tue 07:04:34 AM 22.3089 -73.6086 308° West 433 498 36,000  Level Miami Center
Tue 07:05:34 AM 22.3842 -73.7100 309° West 433 498 36,000  Level Miami Center
Tue 07:06:34 AM 22.4550 -73.8139 306° West 433 498 36,000  Level Miami Center
Tue 07:07:34 AM 22.5322 -73.9133 310° West 433 498 36,000  Level Miami Center
Tue 07:08:34 AM 22.6053 -74.0128 309° West 433 498 36,000  Level Miami Center
Tue 07:09:34 AM 22.6800 -74.1081 310° West 428 493 36,000  Level Miami Center
Tue 07:10:34 AM 22.7508 -74.2078 308° West 423 487 36,000  Level Miami Center
Tue 07:11:34 AM 22.8256 -74.3100 308° West 428 493 36,000  Level Miami Center
Tue 07:12:34 AM 22.9025 -74.4078 311° West 428 493 36,000  Level Miami Center
Tue 07:13:34 AM 22.9750 -74.5078 308° West 428 493 36,000  Level Miami Center
Tue 07:14:34 AM 23.0478 -74.6103 308° West 428 493 36,000  Level Miami Center
Tue 07:15:34 AM 23.1203 -74.7083 309° West 428 493 36,000  Level Miami Center
Tue 07:16:34 AM 23.1947 -74.8111 308° West 428 493 36,000  Level Miami Center
Tue 07:17:34 AM 23.2669 -74.9117 308° West 428 493 36,000  Level Miami Center
Tue 07:18:34 AM 23.3414 -75.0125 309° West 428 493 36,000  Level Miami Center
Tue 07:19:34 AM 23.4139 -75.1156 307° West 428 493 36,000  Level Miami Center
Tue 07:20:34 AM 23.4881 -75.2164 309° West 428 493 36,000  Level Miami Center
Tue 07:21:34 AM 23.5622 -75.3175 309° West 428 493 36,000  Level Miami Center
Tue 07:22:34 AM 23.6364 -75.4208 308° West 428 493 36,000  Level Miami Center
Tue 07:23:34 AM 23.7083 -75.5222 308° West 428 493 36,000  Level Miami Center
Tue 07:24:34 AM 23.7844 -75.6236 309° West 428 493 36,000  Level Miami Center
Tue 07:25:34 AM 23.8564 -75.7272 307° West 433 498 36,000  Level Miami Center
Tue 07:26:34 AM 23.9283 -75.8292 308° West 428 493 36,000  Level Miami Center
Tue 07:27:34 AM 24.0000 -75.9308 308° West 428 493 36,000  Level Miami Center
Tue 07:28:34 AM 24.0758 -76.0325 309° West 428 493 36,000  Level Miami Center
Tue 07:29:34 AM 24.1475 -76.1347 308° West 428 493 36,000  Level Miami Center
Tue 07:30:34 AM 24.2189 -76.2414 306° West 428 493 36,000  Level Miami Center
Tue 07:31:34 AM 24.2925 -76.3436 308° West 428 493 36,000  Level Miami Center
Tue 07:32:34 AM 24.3658 -76.4481 308° West 428 493 36,000  Level Miami Center
Tue 07:33:34 AM 24.4331 -76.5392 309° West 428 493 36,000  Level Miami Center
Tue 07:34:34 AM 24.5042 -76.6442 307° West 428 493 36,000  Level Miami Center
Tue 07:35:34 AM 24.5775 -76.7492 308° West 428 493 36,000  Level Miami Center
Tue 07:36:34 AM 24.6508 -76.8542 308° West 428 493 36,000  Level Miami Center
Tue 07:37:34 AM 24.7239 -76.9594 307° West 433 498 36,000  Level Miami Center
Tue 07:38:34 AM 24.7947 -77.0603 308° West 428 493 36,000  Level Miami Center
Tue 07:39:34 AM 24.8678 -77.1658 307° West 428 493 36,000  Level Miami Center
Tue 07:40:34 AM 24.9408 -77.2692 308° West 428 493 36,000  Level Miami Center
Tue 07:41:34 AM 25.0219 -77.3931 306° West 433 498 36,000  Level Miami Center
Tue 07:42:34 AM 25.0989 -77.4944 310° West 438 504 36,000  Level Miami Center
Tue 07:43:34 AM 25.1733 -77.6075 306° West 444 511 36,000  Level Miami Center
Tue 07:44:34 AM 25.2439 -77.7111 307° West 438 504 36,000  Level Miami Center
Tue 07:45:34 AM 25.3206 -77.8128 310° West 432 497 36,000 -600 Level Miami Center
Tue 07:46:34 AM 25.4142 -77.8964 321° Northwest 432 497 34,800 -1,300 Descending Miami Center
Tue 07:47:34 AM 25.4864 -78.0031 307° West 432 497 33,400 -1,600 Descending Miami Center
Tue 07:48:34 AM 25.5461 -78.1233 299° West 439 505 31,600 -1,850 Descending Miami Center
Tue 07:49:34 AM 25.5972 -78.2483 294° West 445 512 29,700 -1,900 Descending Miami Center
Tue 07:50:34 AM 25.6231 -78.3775 283° West 439 505 27,800 -2,150 Descending Miami Center
Tue 07:51:34 AM 25.6489 -78.5025 283° West 426 490 25,400 -2,400 Descending Miami Center
Tue 07:52:34 AM 25.6664 -78.6247 279° West 415 478 23,000 -2,350 Descending Miami Center
Tue 07:53:34 AM 25.6858 -78.7406 281° West 398 458 20,700 -2,300 Descending Miami Center
Tue 07:54:34 AM 25.7136 -78.8469 286° West 383 441 18,400 -2,050 Descending Miami Center
Tue 07:55:34 AM 25.7250 -78.9347 278° West 369 425 16,600 -2,050 Descending Miami Center
Tue 07:56:34 AM 25.7483 -79.0506 283° West 358 412 14,300 -2,250 Descending Miami Center
Tue 07:57:34 AM 25.7656 -79.1500 281° West 347 399 12,100 -2,150 Descending Miami Center
Tue 07:58:34 AM 25.7828 -79.2497 281° West 342 394 10,000 -1,000 Descending Miami Center
Tue 07:59:34 AM 25.7978 -79.3514 279° West 321 369 10,100 50 Climbing Miami Center
Tue 08:00:34 AM 25.8153 -79.4372 283° West 314 361 10,100  Level Miami Center
Tue 08:01:03 AM 25.8247 -79.4928 281° West 294 338 10,100 -700 Level Miami Center
Tue 08:01:34 AM 25.8303 -79.5344 278° West 309 356 9,400 -1,837 Descending Miami Center
Tue 08:02:41 AM 25.8492 -79.6342 282° West 289 333 7,100 -1,950 Descending Miami Center
Tue 08:03:34 AM 25.8772 -79.6972 296° West 292 336 5,500 -1,646 Descending Miami Center
Tue 08:04:34 AM 25.9156 -79.7767 298° West 287 330 4,000 -1,200 Descending Miami Center
Tue 08:04:49 AM 25.9211 -79.8044 283° West 283 326 4,000  Level Miami Center
Tue 08:05:34 AM 25.9494 -79.8561 301° West 287 330 4,000  Level Miami Center
Tue 08:06:34 AM 25.9792 -79.9353 293° West 282 325 4,000  Level Miami Center
Tue 08:07:34 AM 25.9919 -80.0189 280° West 275 316 4,000 -273 Level Miami Center
Tue 08:08:46 AM 25.9917 -80.1297 270° West 277 319 3,400 -472 Descending Miami Center
Tue 08:09:41 AM 25.9981 -80.2061 275° West 260 299 3,000 -222 Descending Miami Center
Tue 08:10:34 AM 26.0117 -80.2597 286° West 263 303 3,000 -493 Level Miami Center
Tue 08:10:54 AM 26.0131 -80.2897 273° West 202 232 2,400 -690 Descending Miami Center
Tue 08:12:01 AM 26.0175 -80.3617 274° West 212 244 2,000 -188 Descending Miami Center
Tue 08:13:02 AM 26.0672 -80.3769 345° North 212 244 2,000  Level Miami Center
Tue 08:13:56 AM 26.0747 -80.3264 81° East 165 190 2,000 -55 Level Miami Center
Tue 08:14:51 AM 26.0739 -80.2778 91° East 170 196 1,900 -491 Descending Miami Center
Tue 08:15:46 AM 26.0747 -80.2339 89° East 152 175 1,100 -738 Descending Miami Center
Tue 08:16:53 AM 26.0739 -80.1853 91° East 144 166 400 -627 Descending Miami Center
Tue 08:18:00 AM 26.0667 -80.1500 77° East  Level FlightAware Approximate

Login

Don't have an account? Register now (free) for customized features, flight alerts, and more!